Time;durP1;ratioP1;P1;durP2;ratioP2;P2;SDS_P1;SDS_P2;PMS_P1;PMS_P2;Temp;Humidity;BMP_temperature;BMP_pressure;BME280_temperature;BME280_humidity;BME280_pressure;Samples;Min_cycle;Max_cycle;Signal;HPM_P1;HPM_P2
2021/01/05 00:00:36;;;;;;;11.57;7.50;;;0.50;99.90;;;;;;4900195;29;20464;-66
2021/01/05 00:03:03;;;;;;;12.43;6.90;;;0.50;99.90;;;;;;4900068;29;21057;-66
2021/01/05 00:05:30;;;;;;;9.43;7.00;;;0.50;99.90;;;;;;4900022;29;20997;-66
2021/01/05 00:07:56;;;;;;;12.77;6.63;;;0.60;99.90;;;;;;4900059;29;20928;-66
2021/01/05 00:10:23;;;;;;;8.50;5.33;;;0.50;99.90;;;;;;4900305;29;20460;-65
2021/01/05 00:12:49;;;;;;;9.03;6.20;;;0.40;99.90;;;;;;4899922;29;20491;-66
2021/01/05 00:15:17;;;;;;;9.47;6.10;;;0.40;99.90;;;;;;4900796;29;20772;-66
2021/01/05 00:17:43;;;;;;;8.07;5.70;;;0.50;99.90;;;;;;4900173;29;20444;-66
2021/01/05 00:20:13;;;;;;;11.87;6.13;;;0.50;99.90;;;;;;4899806;29;20496;-66
2021/01/05 00:22:40;;;;;;;8.17;5.27;;;0.60;99.90;;;;;;4899639;29;20441;-66
2021/01/05 00:25:08;;;;;;;8.20;5.10;;;0.60;99.90;;;;;;4899876;29;20462;-66
2021/01/05 00:27:34;;;;;;;9.80;6.07;;;0.60;99.90;;;;;;4900053;29;20457;-66
2021/01/05 00:30:02;;;;;;;12.20;6.37;;;0.70;99.90;;;;;;4899982;29;20459;-66
2021/01/05 00:32:29;;;;;;;11.23;5.90;;;0.70;99.90;;;;;;4900136;29;20431;-66
2021/01/05 00:34:55;;;;;;;10.03;5.70;;;0.70;99.90;;;;;;4899847;29;20423;-66
2021/01/05 00:37:21;;;;;;;9.27;5.70;;;0.70;99.90;;;;;;4899821;29;20456;-66
2021/01/05 00:39:48;;;;;;;8.67;5.83;;;0.60;99.90;;;;;;4899827;29;20450;-66
2021/01/05 00:42:15;;;;;;;10.60;5.60;;;0.80;99.90;;;;;;4899717;29;20423;-66
2021/01/05 00:44:41;;;;;;;10.77;5.17;;;0.80;99.90;;;;;;4899573;29;20477;-66
2021/01/05 00:47:08;;;;;;;8.20;5.03;;;0.90;99.90;;;;;;4899886;29;20452;-66
2021/01/05 00:49:34;;;;;;;8.00;4.17;;;0.90;99.90;;;;;;4899323;29;20482;-66
2021/01/05 00:52:01;;;;;;;5.17;4.10;;;0.80;99.90;;;;;;4899568;29;20453;-66
2021/01/05 00:54:28;;;;;;;8.97;4.67;;;0.70;99.90;;;;;;4899489;29;20531;-65
2021/01/05 00:57:04;;;;;;;6.37;4.13;;;0.70;99.90;;;;;;4899171;29;20510;-66
2021/01/05 00:59:30;;;;;;;8.90;4.90;;;0.70;99.90;;;;;;4899142;29;20408;-65
2021/01/05 01:01:57;;;;;;;6.17;5.07;;;0.70;99.90;;;;;;4899383;29;20769;-66
2021/01/05 01:04:24;;;;;;;7.53;4.43;;;0.70;99.90;;;;;;4899258;29;20477;-66
2021/01/05 01:06:50;;;;;;;7.73;4.70;;;0.80;99.90;;;;;;4899187;29;20467;-66
2021/01/05 01:09:16;;;;;;;8.90;4.93;;;0.70;99.90;;;;;;4899252;29;20445;-66
2021/01/05 01:11:59;;;;;;;10.10;5.43;;;0.70;99.90;;;;;;4898896;29;20953;-65
2021/01/05 01:14:26;;;;;;;10.33;6.20;;;0.70;99.90;;;;;;4891514;29;20451;-66
2021/01/05 01:16:52;;;;;;;8.50;5.47;;;0.70;99.90;;;;;;4899106;29;20415;-66
2021/01/05 01:19:19;;;;;;;7.97;5.00;;;0.70;99.90;;;;;;4896892;29;20459;-66
2021/01/05 01:21:46;;;;;;;11.63;5.60;;;0.80;99.90;;;;;;4880423;29;20774;-66
2021/01/05 01:24:12;;;;;;;9.23;5.83;;;0.70;99.90;;;;;;4880253;29;20524;-66
2021/01/05 01:26:38;;;;;;;12.43;7.07;;;0.60;99.90;;;;;;4880223;29;20470;-66
2021/01/05 01:29:04;;;;;;;9.80;6.30;;;0.60;99.90;;;;;;4880251;29;20424;-66
2021/01/05 01:31:32;;;;;;;13.83;7.27;;;0.60;99.90;;;;;;4880198;29;20432;-66
2021/01/05 01:33:58;;;;;;;12.33;6.70;;;0.70;99.90;;;;;;4880020;29;20534;-66
2021/01/05 01:36:25;;;;;;;11.23;5.93;;;0.70;99.90;;;;;;4879120;29;20423;-66
2021/01/05 01:38:51;;;;;;;11.90;5.57;;;0.70;99.90;;;;;;4880105;29;20846;-66
2021/01/05 01:41:17;;;;;;;7.20;5.70;;;0.70;99.90;;;;;;4880297;29;20450;-66
2021/01/05 01:43:43;;;;;;;12.90;5.70;;;0.80;99.90;;;;;;4880275;29;20473;-65
2021/01/05 01:46:10;;;;;;;9.50;5.10;;;0.90;99.90;;;;;;4879903;29;20465;-66
2021/01/05 01:48:38;;;;;;;11.60;6.20;;;1.00;99.90;;;;;;4880159;29;20456;-66
2021/01/05 01:51:04;;;;;;;13.77;6.63;;;0.90;99.90;;;;;;4879929;29;20461;-65
2021/01/05 01:53:42;;;;;;;10.80;6.43;;;0.90;99.90;;;;;;4879782;29;20533;-66
2021/01/05 01:56:26;;;;;;;14.97;6.60;;;0.80;99.90;;;;;;4879822;29;20635;-66
2021/01/05 01:58:58;;;;;;;12.43;5.87;;;0.80;99.90;;;;;;4879860;29;20846;-66
2021/01/05 02:01:45;;;;;;;10.27;5.77;;;0.70;99.90;;;;;;4879774;29;20553;-66
2021/01/05 02:04:47;;;;;;;11.50;6.53;;;0.70;99.90;;;;;;4879895;29;20473;-66
2021/01/05 02:07:41;;;;;;;8.70;5.20;;;0.80;99.90;;;;;;4872141;29;20438;-66
2021/01/05 02:10:21;;;;;;;11.03;6.10;;;0.80;99.90;;;;;;4879723;29;20427;-66
2021/01/05 02:13:01;;;;;;;15.40;6.53;;;0.80;99.90;;;;;;4879634;29;20457;-66
2021/01/05 02:15:32;;;;;;;10.47;6.20;;;0.80;99.90;;;;;;4879674;29;20409;-66
2021/01/05 02:18:37;;;;;;;13.40;6.10;;;0.70;99.90;;;;;;4879371;29;20453;-66
2021/01/05 02:21:07;;;;;;;10.20;6.30;;;0.70;99.90;;;;;;4879163;29;20460;-66
2021/01/05 02:24:01;;;;;;;10.97;6.50;;;0.70;99.90;;;;;;4879504;29;20538;-66
2021/01/05 02:26:32;;;;;;;12.57;6.60;;;0.70;99.90;;;;;;4879499;29;20547;-66
2021/01/05 02:29:03;;;;;;;18.47;8.00;;;0.70;99.90;;;;;;4879251;29;20906;-66
2021/01/05 02:31:53;;;;;;;11.53;7.77;;;0.70;99.90;;;;;;4879231;29;20918;-66
2021/01/05 02:34:40;;;;;;;11.70;6.93;;;0.80;99.90;;;;;;4879657;29;20525;-66
2021/01/05 02:37:16;;;;;;;16.50;7.40;;;0.80;99.90;;;;;;4879422;29;20416;-66
2021/01/05 02:40:02;;;;;;;13.47;7.70;;;0.80;99.90;;;;;;4879471;29;20420;-66
2021/01/05 02:43:01;;;;;;;11.00;5.87;;;0.80;99.90;;;;;;4879341;29;20466;-66
2021/01/05 02:45:29;;;;;;;13.53;7.57;;;0.90;99.90;;;;;;4879329;29;20470;-66
2021/01/05 02:48:10;;;;;;;15.37;8.07;;;1.00;99.90;;;;;;4882885;29;20457;-66
2021/01/05 02:51:04;;;;;;;11.87;6.53;;;1.00;99.90;;;;;;4883090;29;20808;-66
2021/01/05 02:54:21;;;;;;;15.27;7.30;;;0.90;99.90;;;;;;4882637;29;20485;-66
2021/01/05 02:57:16;;;;;;;10.77;6.70;;;0.90;99.90;;;;;;4883241;29;20434;-66
2021/01/05 03:00:12;;;;;;;13.40;7.87;;;1.10;99.90;;;;;;4882899;29;20477;-66
2021/01/05 03:03:31;;;;;;;12.37;6.80;;;1.10;99.90;;;;;;4882843;29;20444;-66
2021/01/05 03:06:33;;;;;;;11.53;6.10;;;1.30;99.90;;;;;;4882887;29;20470;-66
2021/01/05 03:09:34;;;;;;;12.80;6.73;;;1.30;99.90;;;;;;4882451;29;20895;-66
2021/01/05 03:12:19;;;;;;;11.23;6.33;;;1.20;99.90;;;;;;4882651;29;20446;-66
2021/01/05 03:14:56;;;;;;;10.90;6.17;;;1.20;99.90;;;;;;4882553;29;20497;-66
2021/01/05 03:17:29;;;;;;;11.07;6.30;;;1.20;99.90;;;;;;4882335;29;20927;-66
2021/01/05 03:20:06;;;;;;;12.03;6.60;;;1.30;99.90;;;;;;4882385;29;20493;-66
2021/01/05 03:22:37;;;;;;;12.50;6.47;;;1.40;99.90;;;;;;4882467;29;20416;-66
2021/01/05 03:25:06;;;;;;;14.43;7.80;;;1.40;99.90;;;;;;4882429;29;20474;-66
2021/01/05 03:27:33;;;;;;;10.57;5.60;;;1.30;99.90;;;;;;4882405;29;20457;-66
2021/01/05 03:30:07;;;;;;;12.27;6.63;;;1.30;99.90;;;;;;4882370;29;20428;-66
2021/01/05 03:32:34;;;;;;;11.07;6.40;;;1.40;99.90;;;;;;4881969;29;20421;-66
2021/01/05 03:35:00;;;;;;;13.27;7.50;;;1.50;99.90;;;;;;4882217;29;20461;-66
2021/01/05 03:37:26;;;;;;;11.53;6.80;;;1.40;99.90;;;;;;4882255;29;20472;-66
2021/01/05 03:39:52;;;;;;;13.80;6.70;;;1.40;99.90;;;;;;4882175;29;20505;-66
2021/01/05 03:42:19;;;;;;;13.63;7.70;;;1.40;99.90;;;;;;4882084;29;20964;-66
2021/01/05 03:44:45;;;;;;;12.20;7.70;;;1.40;99.90;;;;;;4881963;29;20533;-66
2021/01/05 03:47:12;;;;;;;11.67;6.17;;;1.40;99.90;;;;;;4882042;29;20484;-66
2021/01/05 03:49:38;;;;;;;14.73;7.57;;;1.50;99.90;;;;;;4881999;29;20425;-66
2021/01/05 03:52:04;;;;;;;14.63;7.43;;;1.40;99.90;;;;;;4881780;29;20806;-66
2021/01/05 03:54:31;;;;;;;10.37;6.50;;;1.40;99.90;;;;;;4882056;29;20507;-66
2021/01/05 03:56:57;;;;;;;12.57;6.83;;;1.50;99.90;;;;;;4881892;29;20450;-66
2021/01/05 03:59:23;;;;;;;12.70;7.50;;;1.40;99.90;;;;;;4881446;29;20854;-66
2021/01/05 04:01:51;;;;;;;14.37;7.40;;;1.50;99.90;;;;;;4881524;29;20486;-66
2021/01/05 04:04:18;;;;;;;13.97;7.50;;;1.50;99.90;;;;;;4881682;29;20478;-66
2021/01/05 04:06:44;;;;;;;13.63;7.73;;;1.40;99.90;;;;;;4881668;29;20546;-66
2021/01/05 04:09:10;;;;;;;14.23;7.90;;;1.40;99.90;;;;;;4881677;29;20439;-66
2021/01/05 04:11:37;;;;;;;16.97;8.90;;;1.40;99.90;;;;;;4881677;29;20457;-66
2021/01/05 04:14:03;;;;;;;14.60;8.30;;;1.40;99.90;;;;;;4881516;29;20448;-66
2021/01/05 04:16:31;;;;;;;17.33;9.00;;;1.40;99.90;;;;;;4881589;29;20425;-66
2021/01/05 04:18:57;;;;;;;16.90;8.53;;;1.40;99.90;;;;;;4881607;29;20458;-66
2021/01/05 04:21:24;;;;;;;16.50;8.70;;;1.40;99.90;;;;;;4881089;29;20536;-66
2021/01/05 04:23:51;;;;;;;14.20;8.23;;;1.40;99.90;;;;;;4881325;29;20477;-66
2021/01/05 04:26:17;;;;;;;15.17;8.67;;;1.40;99.90;;;;;;4881252;29;20999;-66
2021/01/05 04:28:43;;;;;;;15.03;8.00;;;1.40;99.90;;;;;;4881346;29;20505;-66
2021/01/05 04:31:09;;;;;;;15.87;8.50;;;1.40;99.90;;;;;;4881345;29;20458;-66
2021/01/05 04:33:35;;;;;;;20.00;9.40;;;1.40;99.90;;;;;;4881185;29;20473;-66
2021/01/05 04:36:02;;;;;;;16.30;8.47;;;1.40;99.90;;;;;;4880911;29;20922;-66
2021/01/05 04:38:29;;;;;;;20.73;11.00;;;1.40;99.90;;;;;;4881097;29;20783;-66
2021/01/05 04:40:55;;;;;;;20.73;9.97;;;1.40;99.90;;;;;;4880833;29;20457;-66
2021/01/05 04:43:34;;;;;;;16.27;9.30;;;1.40;99.90;;;;;;4881066;29;20481;-66
2021/01/05 04:46:17;;;;;;;19.40;10.00;;;1.50;99.90;;;;;;4881050;29;20473;-66
2021/01/05 04:48:51;;;;;;;22.03;10.00;;;1.40;99.90;;;;;;4880750;29;20937;-66
2021/01/05 04:51:32;;;;;;;25.33;10.80;;;1.40;99.90;;;;;;4880983;29;20443;-66
2021/01/05 04:54:03;;;;;;;20.23;10.43;;;1.30;99.90;;;;;;4880816;29;20444;-66
2021/01/05 04:56:44;;;;;;;21.00;10.10;;;1.30;99.90;;;;;;4880882;29;20442;-66
2021/01/05 04:59:14;;;;;;;25.33;10.93;;;1.40;99.90;;;;;;4880769;29;20421;-65
2021/01/05 05:01:42;;;;;;;20.77;11.87;;;1.30;99.90;;;;;;4880445;29;20429;-66
2021/01/05 05:04:16;;;;;;;22.50;10.27;;;1.30;99.90;;;;;;4880600;29;20448;-66
2021/01/05 05:06:47;;;;;;;19.73;10.47;;;1.40;99.90;;;;;;4880608;29;20480;-66
2021/01/05 05:09:41;;;;;;;21.53;10.63;;;1.40;99.90;;;;;;4880479;29;20426;-66
2021/01/05 05:12:23;;;;;;;23.70;11.33;;;1.40;99.90;;;;;;4880615;29;20438;-66
2021/01/05 05:14:58;;;;;;;26.43;12.30;;;1.40;99.90;;;;;;4880504;29;20481;-66
2021/01/05 05:17:38;;;;;;;21.13;10.77;;;1.50;99.90;;;;;;4880240;29;20482;-66
2021/01/05 05:20:15;;;;;;;21.10;11.13;;;1.40;99.90;;;;;;4880280;29;20485;-66
2021/01/05 05:22:52;;;;;;;27.27;13.10;;;1.50;99.90;;;;;;4880288;29;20894;-66
2021/01/05 05:25:29;;;;;;;23.77;10.97;;;1.50;99.90;;;;;;4880319;29;20445;-66
2021/01/05 05:27:59;;;;;;;26.17;12.00;;;1.50;99.90;;;;;;4880161;29;20814;-66
2021/01/05 05:30:33;;;;;;;23.97;11.70;;;1.50;99.90;;;;;;4880265;29;20450;-66
2021/01/05 05:33:00;;;;;;;21.23;11.00;;;1.50;99.90;;;;;;4880160;29;20478;-66
2021/01/05 05:36:01;;;;;;;25.63;12.30;;;1.50;99.90;;;;;;4880912;29;20428;-65
2021/01/05 05:38:42;;;;;;;23.97;11.87;;;1.40;99.90;;;;;;4867119;29;20432;-65
2021/01/05 05:41:19;;;;;;;24.83;12.00;;;1.50;99.90;;;;;;4880102;29;20485;-65
2021/01/05 05:43:58;;;;;;;24.87;12.03;;;1.50;99.90;;;;;;4880023;29;20473;-65
2021/01/05 05:46:31;;;;;;;26.30;12.13;;;1.50;99.90;;;;;;4879954;29;20481;-65
2021/01/05 05:49:05;;;;;;;22.37;11.07;;;1.50;99.90;;;;;;4879698;29;20970;-65
2021/01/05 05:51:36;;;;;;;22.97;11.70;;;1.60;99.90;;;;;;4879968;29;20443;-65
2021/01/05 05:54:10;;;;;;;21.70;12.03;;;1.60;99.90;;;;;;4879861;29;20463;-65
2021/01/05 05:56:49;;;;;;;23.67;12.43;;;1.50;99.90;;;;;;4879883;29;20434;-65
2021/01/05 05:59:18;;;;;;;26.70;12.93;;;1.50;99.90;;;;;;4880640;29;20832;-65
2021/01/05 06:01:44;;;;;;;21.73;12.60;;;1.60;99.90;;;;;;4879797;29;20436;-65
2021/01/05 06:04:12;;;;;;;25.70;12.60;;;1.60;99.90;;;;;;4879369;29;20501;-65
2021/01/05 06:06:40;;;;;;;25.40;13.30;;;1.50;99.90;;;;;;4879743;29;20617;-65
2021/01/05 06:09:06;;;;;;;21.67;11.80;;;1.60;99.90;;;;;;4879461;29;20433;-65
2021/01/05 06:11:33;;;;;;;25.63;12.93;;;1.60;99.90;;;;;;4879415;29;20425;-65
2021/01/05 06:14:00;;;;;;;23.70;12.37;;;1.60;99.90;;;;;;4879285;29;20917;-65
2021/01/05 06:16:30;;;;;;;28.67;13.30;;;1.60;99.90;;;;;;4879380;29;20478;-65
2021/01/05 06:18:56;;;;;;;24.63;12.70;;;1.60;99.90;;;;;;4879607;29;20439;-65
2021/01/05 06:21:22;;;;;;;24.37;12.10;;;1.60;99.90;;;;;;4878875;29;20489;-65
2021/01/05 06:23:48;;;;;;;26.90;13.20;;;1.60;99.90;;;;;;4879513;29;20448;-65
2021/01/05 06:26:16;;;;;;;31.57;13.70;;;1.50;99.90;;;;;;4879465;29;20489;-65
2021/01/05 06:28:42;;;;;;;28.60;13.47;;;1.60;99.90;;;;;;4879510;29;20488;-65
2021/01/05 06:31:09;;;;;;;29.57;13.60;;;1.50;99.90;;;;;;4879506;29;20455;-65
2021/01/05 06:33:35;;;;;;;20.00;12.90;;;1.50;99.90;;;;;;4879675;29;20440;-65
2021/01/05 06:36:02;;;;;;;24.13;12.47;;;1.50;99.90;;;;;;4879177;29;20968;-65
2021/01/05 06:38:28;;;;;;;27.83;13.80;;;1.60;99.90;;;;;;4879426;29;20428;-65
2021/01/05 06:40:54;;;;;;;24.73;11.27;;;1.60;99.90;;;;;;4880094;29;20781;-65
2021/01/05 06:43:20;;;;;;;23.47;12.27;;;1.60;99.90;;;;;;4879313;29;20506;-65
2021/01/05 06:45:47;;;;;;;25.13;12.43;;;1.60;99.90;;;;;;4879019;29;20482;-65
2021/01/05 06:48:14;;;;;;;26.50;13.10;;;1.60;99.90;;;;;;4871699;29;20457;-65
2021/01/05 06:50:40;;;;;;;26.90;13.70;;;1.70;99.90;;;;;;4879295;29;20435;-65
2021/01/05 06:53:06;;;;;;;28.03;13.30;;;1.60;99.90;;;;;;4879223;29;20476;-65
2021/01/05 06:55:33;;;;;;;26.77;13.23;;;1.60;99.90;;;;;;4879042;29;20958;-65
2021/01/05 06:57:59;;;;;;;22.60;12.83;;;1.50;99.90;;;;;;4879276;29;20453;-65
2021/01/05 07:00:28;;;;;;;20.07;12.27;;;1.60;99.90;;;;;;4879493;29;20424;-65
2021/01/05 07:02:55;;;;;;;28.50;12.57;;;1.60;99.90;;;;;;4879440;29;20469;-65
2021/01/05 07:05:23;;;;;;;21.73;11.83;;;1.70;99.90;;;;;;4879131;29;20436;-65
2021/01/05 07:07:50;;;;;;;24.50;13.63;;;1.70;99.90;;;;;;4879196;29;20501;-65
2021/01/05 07:10:18;;;;;;;34.77;14.30;;;1.70;99.90;;;;;;4879226;29;20461;-65
2021/01/05 07:12:45;;;;;;;24.17;12.90;;;1.80;99.90;;;;;;4879082;29;20453;-65
2021/01/05 07:15:13;;;;;;;29.23;13.50;;;1.80;99.90;;;;;;4879112;29;20432;-65
2021/01/05 07:17:39;;;;;;;30.47;13.73;;;1.70;99.90;;;;;;4879116;29;20450;-65
2021/01/05 07:20:07;;;;;;;29.07;13.53;;;1.70;99.90;;;;;;4878610;29;20460;-67
2021/01/05 07:22:34;;;;;;;26.27;14.37;;;1.70;99.90;;;;;;4878982;29;20428;-68
2021/01/05 07:25:01;;;;;;;28.10;13.80;;;1.70;99.90;;;;;;4879050;29;20435;-67
2021/01/05 07:27:27;;;;;;;24.47;12.90;;;1.70;99.90;;;;;;4878952;29;20467;-67
2021/01/05 07:29:53;;;;;;;30.33;13.40;;;1.70;99.90;;;;;;4879004;29;20429;-67
2021/01/05 07:32:19;;;;;;;29.97;13.90;;;1.70;99.90;;;;;;4879007;29;20532;-68
2021/01/05 07:34:46;;;;;;;32.33;14.60;;;1.70;99.90;;;;;;4881302;29;20820;-67
2021/01/05 07:37:17;;;;;;;28.50;12.70;;;1.80;99.90;;;;;;4883028;29;20460;-67
2021/01/05 07:39:44;;;;;;;24.80;13.63;;;1.70;99.90;;;;;;4882265;29;20469;-67
2021/01/05 07:42:19;;;;;;;30.90;14.67;;;1.70;99.90;;;;;;4882102;29;20454;-67
2021/01/05 07:44:47;;;;;;;29.30;14.40;;;1.80;99.90;;;;;;4882085;29;20477;-67
2021/01/05 07:47:15;;;;;;;27.03;13.93;;;1.80;99.90;;;;;;4881727;29;20460;-67
2021/01/05 07:49:41;;;;;;;29.83;14.20;;;1.80;99.90;;;;;;4882160;29;20460;-68
2021/01/05 07:52:19;;;;;;;36.07;13.17;;;1.70;99.90;;;;;;4881983;29;20458;-67
2021/01/05 07:54:46;;;;;;;25.47;13.30;;;1.70;99.90;;;;;;4881938;29;20877;-67
2021/01/05 07:57:12;;;;;;;28.53;14.37;;;1.70;99.90;;;;;;4882121;29;20448;-67
2021/01/05 07:59:39;;;;;;;23.17;12.30;;;1.70;99.90;;;;;;4881873;29;20432;-67
2021/01/05 08:02:06;;;;;;;31.40;14.57;;;1.70;99.90;;;;;;4881785;29;20424;-68
2021/01/05 08:04:33;;;;;;;29.37;13.30;;;1.70;99.90;;;;;;4881690;29;20894;-67
2021/01/05 08:06:59;;;;;;;29.70;13.97;;;1.70;99.90;;;;;;4881696;29;20449;-67
2021/01/05 08:09:25;;;;;;;26.20;12.73;;;1.70;99.90;;;;;;4881683;29;20436;-67
2021/01/05 08:11:52;;;;;;;26.73;14.87;;;1.70;99.90;;;;;;4881601;29;20433;-67
2021/01/05 08:14:18;;;;;;;25.50;14.17;;;1.70;99.90;;;;;;4881518;29;20474;-67
2021/01/05 08:16:49;;;;;;;27.57;13.67;;;1.70;99.90;;;;;;4881526;29;20443;-67
2021/01/05 08:19:15;;;;;;;28.10;13.73;;;1.70;99.90;;;;;;4881061;29;20944;-67
2021/01/05 08:21:42;;;;;;;28.83;12.87;;;1.80;99.90;;;;;;4881495;29;20445;-68
2021/01/05 08:24:08;;;;;;;27.27;13.93;;;1.80;99.90;;;;;;4881132;29;20811;-67
2021/01/05 08:26:35;;;;;;;25.93;12.67;;;1.80;99.90;;;;;;4881244;29;20485;-67
2021/01/05 08:29:02;;;;;;;24.97;14.10;;;1.80;99.90;;;;;;4881301;29;20875;-67
2021/01/05 08:31:32;;;;;;;28.93;13.63;;;1.80;99.90;;;;;;4881286;29;20837;-68
2021/01/05 08:33:59;;;;;;;28.00;13.57;;;1.80;99.90;;;;;;4881161;29;20477;-67
2021/01/05 08:36:27;;;;;;;25.23;12.67;;;1.80;99.90;;;;;;4880840;29;20940;-67
2021/01/05 08:38:54;;;;;;;25.57;13.17;;;1.80;99.90;;;;;;4880848;29;21059;-68
2021/01/05 08:41:20;;;;;;;24.50;12.70;;;1.70;99.90;;;;;;4881915;29;20498;-68
2021/01/05 08:43:47;;;;;;;27.50;13.07;;;1.70;99.90;;;;;;4880815;29;20453;-68
2021/01/05 08:46:20;;;;;;;25.90;13.30;;;1.70;99.90;;;;;;4873358;29;20484;-68
2021/01/05 08:48:47;;;;;;;26.77;14.43;;;1.70;99.90;;;;;;4880674;29;20436;-67
2021/01/05 08:51:14;;;;;;;25.67;12.50;;;1.80;99.90;;;;;;4880641;29;20457;-67
2021/01/05 08:53:41;;;;;;;27.17;13.50;;;1.80;99.90;;;;;;4880436;29;20551;-67
2021/01/05 08:56:16;;;;;;;25.40;12.47;;;1.80;99.90;;;;;;4880891;29;20401;-67
2021/01/05 08:58:42;;;;;;;22.87;12.07;;;1.80;99.90;;;;;;4880796;29;20438;-68
2021/01/05 09:01:08;;;;;;;20.27;11.10;;;1.90;99.90;;;;;;4880480;29;20442;-68
2021/01/05 09:03:35;;;;;;;20.13;11.20;;;1.90;99.90;;;;;;4880604;29;20546;-67
2021/01/05 09:06:01;;;;;;;20.30;11.00;;;1.80;99.90;;;;;;4880582;29;20888;-67
2021/01/05 09:08:30;;;;;;;20.87;10.80;;;1.80;99.90;;;;;;4880637;29;20454;-67
2021/01/05 09:10:57;;;;;;;21.20;10.50;;;1.80;99.90;;;;;;4880780;29;20432;-67
2021/01/05 09:13:24;;;;;;;27.13;11.30;;;1.80;99.90;;;;;;4880475;29;20523;-68
2021/01/05 09:15:51;;;;;;;20.63;10.63;;;1.70;99.90;;;;;;4880498;29;20449;-68
2021/01/05 09:18:17;;;;;;;19.60;11.00;;;1.70;99.90;;;;;;4880396;29;20445;-67
2021/01/05 09:20:44;;;;;;;21.53;11.37;;;1.70;99.90;;;;;;4880040;29;20485;-68
2021/01/05 09:23:11;;;;;;;18.23;11.43;;;1.80;99.90;;;;;;4879996;29;20552;-67
2021/01/05 09:25:38;;;;;;;19.50;10.17;;;1.80;99.90;;;;;;4880269;29;20457;-67
2021/01/05 09:28:04;;;;;;;18.83;10.87;;;1.80;99.90;;;;;;4880268;29;20519;-68
2021/01/05 09:30:30;;;;;;;22.20;10.03;;;1.80;99.90;;;;;;4880220;29;20453;-68
2021/01/05 09:32:57;;;;;;;17.10;10.33;;;1.90;99.90;;;;;;4880116;29;20452;-67
2021/01/05 09:35:23;;;;;;;17.70;10.47;;;1.90;99.90;;;;;;4880143;29;20431;-67
2021/01/05 09:37:50;;;;;;;22.20;10.53;;;1.80;99.90;;;;;;4880000;29;20453;-67
2021/01/05 09:40:19;;;;;;;21.97;10.20;;;1.90;99.90;;;;;;4880121;29;20457;-68
2021/01/05 09:42:45;;;;;;;18.87;11.00;;;1.80;99.90;;;;;;4879947;29;20439;-67
2021/01/05 09:45:13;;;;;;;22.43;10.33;;;1.80;99.90;;;;;;4879711;29;20954;-65
2021/01/05 09:47:39;;;;;;;20.87;11.10;;;1.80;99.90;;;;;;4879918;29;20460;-65
2021/01/05 09:50:07;;;;;;;16.63;9.90;;;1.90;99.90;;;;;;4879943;29;20458;-65
2021/01/05 09:52:34;;;;;;;23.93;11.27;;;1.90;99.90;;;;;;4879873;29;20435;-65
2021/01/05 09:55:01;;;;;;;18.97;10.00;;;2.00;99.90;;;;;;4879906;29;20456;-65
2021/01/05 09:57:27;;;;;;;17.77;9.00;;;2.10;99.90;;;;;;4878542;29;20950;-65
2021/01/05 09:59:53;;;;;;;17.30;9.50;;;2.00;99.90;;;;;;4879730;29;20442;-65
2021/01/05 10:02:21;;;;;;;16.73;9.40;;;1.90;99.90;;;;;;4879813;29;20409;-65
2021/01/05 10:04:47;;;;;;;19.70;10.47;;;1.90;99.90;;;;;;4879409;29;20515;-66
2021/01/05 10:07:13;;;;;;;17.53;9.70;;;1.90;99.90;;;;;;4879485;29;20530;-65
2021/01/05 10:09:40;;;;;;;18.10;10.50;;;1.90;99.90;;;;;;4878682;29;20923;-65
2021/01/05 10:12:08;;;;;;;20.00;10.87;;;1.90;99.90;;;;;;4879702;29;20413;-65
2021/01/05 10:14:34;;;;;;;18.67;10.17;;;1.90;99.90;;;;;;4879555;29;20473;-65
2021/01/05 10:17:00;;;;;;;18.40;10.00;;;1.90;99.90;;;;;;4879671;29;20432;-65
2021/01/05 10:19:27;;;;;;;18.17;10.57;;;1.90;99.90;;;;;;4879412;29;21034;-65
2021/01/05 10:21:53;;;;;;;19.67;10.50;;;1.90;99.90;;;;;;4879610;29;20458;-65
2021/01/05 10:24:20;;;;;;;17.10;10.63;;;1.90;99.90;;;;;;4879807;29;20478;-65
2021/01/05 10:26:51;;;;;;;17.10;9.80;;;1.90;99.90;;;;;;4879858;29;20534;-65
2021/01/05 10:29:18;;;;;;;18.13;10.00;;;1.90;99.90;;;;;;4879604;29;20853;-65
2021/01/05 10:31:45;;;;;;;21.43;10.70;;;1.90;99.90;;;;;;4879556;29;20447;-65
2021/01/05 10:34:13;;;;;;;17.17;9.40;;;2.00;99.90;;;;;;4879410;29;20496;-65
2021/01/05 10:36:39;;;;;;;20.03;10.03;;;2.00;99.90;;;;;;4879542;29;20438;-66
2021/01/05 10:39:07;;;;;;;17.27;9.60;;;1.90;99.90;;;;;;4879482;29;20408;-66
2021/01/05 10:41:35;;;;;;;21.03;10.93;;;2.00;99.90;;;;;;4879480;29;20413;-65
2021/01/05 10:44:02;;;;;;;22.70;11.67;;;2.00;99.90;;;;;;4879080;29;20448;-67
2021/01/05 10:46:29;;;;;;;21.70;11.50;;;2.00;99.90;;;;;;4879193;29;20978;-67
2021/01/05 10:48:55;;;;;;;18.70;10.70;;;1.90;99.90;;;;;;4879626;29;20413;-67
2021/01/05 10:51:21;;;;;;;22.17;11.30;;;1.90;99.90;;;;;;4879062;29;20447;-67
2021/01/05 10:53:47;;;;;;;26.27;10.40;;;1.90;99.90;;;;;;4879563;29;20478;-66
2021/01/05 10:56:14;;;;;;;20.07;10.80;;;2.00;99.90;;;;;;4879587;29;20434;-67
2021/01/05 10:58:41;;;;;;;20.80;10.63;;;1.90;99.90;;;;;;4879304;29;20447;-68
2021/01/05 11:01:07;;;;;;;21.13;11.60;;;2.00;99.90;;;;;;4879025;29;20938;-68
2021/01/05 11:03:35;;;;;;;22.27;10.90;;;2.00;99.90;;;;;;4878916;29;20474;-67
2021/01/05 11:06:02;;;;;;;20.73;11.37;;;2.00;99.90;;;;;;4879722;29;21002;-66
2021/01/05 11:08:28;;;;;;;20.93;11.27;;;2.10;99.90;;;;;;4881409;29;20912;-69
2021/01/05 11:10:54;;;;;;;17.10;10.53;;;2.20;99.90;;;;;;4882768;29;20442;-68
2021/01/05 11:13:21;;;;;;;19.40;10.47;;;2.30;99.90;;;;;;4882688;29;20448;-68
2021/01/05 11:15:47;;;;;;;21.87;10.43;;;2.40;99.90;;;;;;4882677;29;20445;-70
2021/01/05 11:18:13;;;;;;;19.63;11.27;;;2.50;99.90;;;;;;4882633;29;20444;-69
2021/01/05 11:20:41;;;;;;;20.33;11.97;;;2.50;99.90;;;;;;4882242;29;20485;-68
2021/01/05 11:23:08;;;;;;;20.83;11.43;;;2.40;99.90;;;;;;4882484;29;20561;-68
2021/01/05 11:25:34;;;;;;;17.77;10.50;;;2.40;99.90;;;;;;4882474;29;20499;-68
2021/01/05 11:28:01;;;;;;;20.83;10.53;;;2.40;99.90;;;;;;4882517;29;20956;-68
2021/01/05 11:30:27;;;;;;;19.67;10.53;;;2.30;99.90;;;;;;4882382;29;20444;-68
2021/01/05 11:32:53;;;;;;;18.93;10.90;;;2.30;99.90;;;;;;4882341;29;20571;-69
2021/01/05 11:35:20;;;;;;;20.00;10.10;;;2.30;99.90;;;;;;4882108;29;20433;-68
2021/01/05 11:37:47;;;;;;;21.03;11.10;;;2.40;99.90;;;;;;4882008;29;20445;-68
2021/01/05 11:40:15;;;;;;;22.93;11.23;;;2.40;99.90;;;;;;4882240;29;20485;-68
2021/01/05 11:42:41;;;;;;;21.27;10.77;;;2.40;99.90;;;;;;4882146;29;20417;-69
2021/01/05 11:45:10;;;;;;;19.67;10.63;;;2.40;99.90;;;;;;4882150;29;20914;-68
2021/01/05 11:47:36;;;;;;;18.30;9.97;;;2.40;99.90;;;;;;4882036;29;20448;-68
2021/01/05 11:50:05;;;;;;;17.83;10.13;;;2.50;99.90;;;;;;4882067;29;20778;-68
2021/01/05 11:52:32;;;;;;;16.93;10.07;;;2.60;99.90;;;;;;4881971;29;20475;-68
2021/01/05 11:54:59;;;;;;;20.87;10.33;;;2.60;99.90;;;;;;4881934;29;20434;-68
2021/01/05 11:57:26;;;;;;;19.80;10.70;;;2.60;99.90;;;;;;4881957;29;20793;-68
2021/01/05 11:59:52;;;;;;;18.00;9.90;;;2.60;99.90;;;;;;4881914;29;20438;-68
2021/01/05 12:02:18;;;;;;;22.23;11.37;;;2.70;99.90;;;;;;4881903;29;20450;-68
2021/01/05 12:04:44;;;;;;;20.30;10.93;;;2.70;99.90;;;;;;4881434;29;20957;-68
2021/01/05 12:07:10;;;;;;;18.50;10.57;;;2.60;99.90;;;;;;4881890;29;20481;-68
2021/01/05 12:09:36;;;;;;;21.13;10.87;;;2.70;99.90;;;;;;4881702;29;20905;-68
2021/01/05 12:12:07;;;;;;;17.63;9.87;;;2.60;99.90;;;;;;4881724;29;20443;-68
2021/01/05 12:14:33;;;;;;;15.73;9.63;;;2.60;99.90;;;;;;4881608;29;20531;-68
2021/01/05 12:17:01;;;;;;;17.03;9.17;;;2.50;99.90;;;;;;4882160;29;20434;-69
2021/01/05 12:19:30;;;;;;;20.07;10.40;;;2.50;99.90;;;;;;4880623;29;20482;-68
2021/01/05 12:21:58;;;;;;;20.63;10.20;;;2.50;99.90;;;;;;4881203;29;20449;-69
2021/01/05 12:24:26;;;;;;;22.47;11.90;;;2.40;99.90;;;;;;4881386;29;20478;-69
2021/01/05 12:26:55;;;;;;;21.10;9.67;;;2.40;99.90;;;;;;4880981;29;20488;-69
2021/01/05 12:29:24;;;;;;;23.10;10.80;;;2.40;99.90;;;;;;4881351;29;20458;-68
2021/01/05 12:31:53;;;;;;;20.30;10.23;;;2.30;99.90;;;;;;4881295;29;20457;-69
2021/01/05 12:34:22;;;;;;;16.60;9.50;;;2.40;99.90;;;;;;4881167;29;20452;-69
2021/01/05 12:36:48;;;;;;;17.23;8.80;;;2.40;99.90;;;;;;4881255;29;20424;-68
2021/01/05 12:39:17;;;;;;;19.70;10.27;;;2.30;99.90;;;;;;4881169;29;20812;-69
2021/01/05 12:41:43;;;;;;;23.37;11.07;;;2.40;99.90;;;;;;4881094;29;20436;-68
2021/01/05 12:44:13;;;;;;;20.20;11.60;;;2.40;99.90;;;;;;4881001;29;20529;-68
2021/01/05 12:46:40;;;;;;;23.90;11.70;;;2.40;99.90;;;;;;4880875;29;20459;-68
2021/01/05 12:49:08;;;;;;;21.13;10.60;;;2.40;99.90;;;;;;4880957;29;20428;-69
2021/01/05 12:51:35;;;;;;;21.60;10.20;;;2.40;99.90;;;;;;4880525;29;20477;-69
2021/01/05 12:54:02;;;;;;;24.33;10.60;;;2.30;99.90;;;;;;4880842;29;20445;-68